sensor_id;sensor_type;location;lat;lon;timestamp;pressure;altitude;pressure_sealevel;temperature;humidity
12963;BME280;6546;49.882;8.666;2022-10-16T00:00:39;99584.44;;;16.23;100.00
12963;BME280;6546;49.882;8.666;2022-10-16T00:03:07;99573.94;;;16.24;100.00
12963;BME280;6546;49.882;8.666;2022-10-16T00:05:38;99562.59;;;16.27;100.00
12963;BME280;6546;49.882;8.666;2022-10-16T00:08:06;99568.72;;;16.24;100.00
12963;BME280;6546;49.882;8.666;2022-10-16T00:10:34;99572.25;;;16.23;100.00
12963;BME280;6546;49.882;8.666;2022-10-16T00:13:02;99567.09;;;16.20;100.00
12963;BME280;6546;49.882;8.666;2022-10-16T00:15:32;99575.00;;;16.17;100.00
12963;BME280;6546;49.882;8.666;2022-10-16T00:18:01;99574.25;;;16.12;100.00
12963;BME280;6546;49.882;8.666;2022-10-16T00:20:28;99579.25;;;16.21;100.00
12963;BME280;6546;49.882;8.666;2022-10-16T00:22:56;99589.75;;;16.18;100.00
12963;BME280;6546;49.882;8.666;2022-10-16T00:25:23;99573.94;;;16.24;100.00
12963;BME280;6546;49.882;8.666;2022-10-16T00:27:50;99577.38;;;16.26;100.00
12963;BME280;6546;49.882;8.666;2022-10-16T00:30:17;99571.47;;;16.18;100.00
12963;BME280;6546;49.882;8.666;2022-10-16T00:32:45;99576.81;;;16.15;100.00
12963;BME280;6546;49.882;8.666;2022-10-16T00:35:12;99581.97;;;16.16;100.00
12963;BME280;6546;49.882;8.666;2022-10-16T00:37:39;99587.38;;;16.10;100.00
12963;BME280;6546;49.882;8.666;2022-10-16T00:40:07;99580.38;;;16.11;100.00
12963;BME280;6546;49.882;8.666;2022-10-16T00:42:34;99586.50;;;16.10;100.00
12963;BME280;6546;49.882;8.666;2022-10-16T00:45:02;99586.50;;;16.10;100.00
12963;BME280;6546;49.882;8.666;2022-10-16T00:47:33;99578.69;;;16.08;100.00
12963;BME280;6546;49.882;8.666;2022-10-16T00:50:07;99589.19;;;16.05;100.00
12963;BME280;6546;49.882;8.666;2022-10-16T00:52:35;99589.44;;;15.96;100.00
12963;BME280;6546;49.882;8.666;2022-10-16T00:55:03;99579.94;;;15.93;100.00
12963;BME280;6546;49.882;8.666;2022-10-16T00:57:31;99581.72;;;15.93;100.00
12963;BME280;6546;49.882;8.666;2022-10-16T00:59:58;99596.47;;;15.94;100.00
12963;BME280;6546;49.882;8.666;2022-10-16T01:02:25;99593.88;;;15.92;100.00
12963;BME280;6546;49.882;8.666;2022-10-16T01:04:53;99589.59;;;15.90;100.00
12963;BME280;6546;49.882;8.666;2022-10-16T01:07:32;99598.38;;;15.86;100.00
12963;BME280;6546;49.882;8.666;2022-10-16T01:10:10;99589.72;;;15.84;100.00
12963;BME280;6546;49.882;8.666;2022-10-16T01:12:44;99595.91;;;15.81;100.00
12963;BME280;6546;49.882;8.666;2022-10-16T01:15:17;99604.53;;;15.83;100.00
12963;BME280;6546;49.882;8.666;2022-10-16T01:17:53;99606.22;;;15.84;100.00
12963;BME280;6546;49.882;8.666;2022-10-16T01:20:27;99596.81;;;15.79;100.00
12963;BME280;6546;49.882;8.666;2022-10-16T01:23:21;99606.41;;;15.78;100.00
12963;BME280;6546;49.882;8.666;2022-10-16T01:26:03;99602.19;;;15.73;100.00
12963;BME280;6546;49.882;8.666;2022-10-16T01:28:40;99610.94;;;15.70;100.00
12963;BME280;6546;49.882;8.666;2022-10-16T01:31:09;99609.06;;;15.75;100.00
12963;BME280;6546;49.882;8.666;2022-10-16T01:33:41;99612.63;;;15.71;100.00
12963;BME280;6546;49.882;8.666;2022-10-16T01:36:13;99613.53;;;15.70;100.00
12963;BME280;6546;49.882;8.666;2022-10-16T01:38:44;99612.72;;;15.68;100.00
12963;BME280;6546;49.882;8.666;2022-10-16T01:41:17;99597.88;;;15.70;100.00
12963;BME280;6546;49.882;8.666;2022-10-16T01:43:48;99603.03;;;15.73;100.00
12963;BME280;6546;49.882;8.666;2022-10-16T01:46:18;99606.56;;;15.72;100.00
12963;BME280;6546;49.882;8.666;2022-10-16T01:48:46;99616.97;;;15.72;100.00
12963;BME280;6546;49.882;8.666;2022-10-16T01:51:15;99617.91;;;15.69;100.00
12963;BME280;6546;49.882;8.666;2022-10-16T01:53:45;99624.00;;;15.68;100.00
12963;BME280;6546;49.882;8.666;2022-10-16T01:56:15;99633.53;;;15.69;100.00
12963;BME280;6546;49.882;8.666;2022-10-16T01:58:48;99630.81;;;15.74;100.00
12963;BME280;6546;49.882;8.666;2022-10-16T02:01:19;99635.25;;;15.72;100.00
12963;BME280;6546;49.882;8.666;2022-10-16T02:03:49;99636.97;;;15.71;100.00
12963;BME280;6546;49.882;8.666;2022-10-16T02:06:18;99636.94;;;15.73;100.00
12963;BME280;6546;49.882;8.666;2022-10-16T02:08:46;99633.41;;;15.76;100.00
12963;BME280;6546;49.882;8.666;2022-10-16T02:11:13;99627.25;;;15.78;100.00
12963;BME280;6546;49.882;8.666;2022-10-16T02:13:43;99626.19;;;15.87;100.00
12963;BME280;6546;49.882;8.666;2022-10-16T02:16:15;99628.69;;;15.91;100.00
12963;BME280;6546;49.882;8.666;2022-10-16T02:18:43;99620.00;;;15.91;100.00
12963;BME280;6546;49.882;8.666;2022-10-16T02:21:16;99621.69;;;15.93;100.00
12963;BME280;6546;49.882;8.666;2022-10-16T02:23:48;99619.03;;;15.95;100.00
12963;BME280;6546;49.882;8.666;2022-10-16T02:26:27;99621.69;;;15.93;100.00
12963;BME280;6546;49.882;8.666;2022-10-16T02:29:00;99620.75;;;15.96;100.00
12963;BME280;6546;49.882;8.666;2022-10-16T02:31:35;99611.31;;;15.90;100.00
12963;BME280;6546;49.882;8.666;2022-10-16T02:34:03;99622.56;;;15.92;100.00
12963;BME280;6546;49.882;8.666;2022-10-16T02:36:32;99616.59;;;15.89;100.00
12963;BME280;6546;49.882;8.666;2022-10-16T02:39:00;99617.50;;;15.86;100.00
12963;BME280;6546;49.882;8.666;2022-10-16T02:41:29;99617.56;;;15.85;100.00
12963;BME280;6546;49.882;8.666;2022-10-16T02:43:57;99619.28;;;15.84;100.00
12963;BME280;6546;49.882;8.666;2022-10-16T02:46:23;99612.34;;;15.85;100.00
12963;BME280;6546;49.882;8.666;2022-10-16T02:48:52;99623.63;;;15.85;100.00
12963;BME280;6546;49.882;8.666;2022-10-16T02:51:19;99627.91;;;15.88;100.00
12963;BME280;6546;49.882;8.666;2022-10-16T02:53:47;99627.09;;;15.84;100.00
12963;BME280;6546;49.882;8.666;2022-10-16T02:56:14;99630.56;;;15.86;100.00
12963;BME280;6546;49.882;8.666;2022-10-16T02:58:41;99634.84;;;15.89;100.00
12963;BME280;6546;49.882;8.666;2022-10-16T03:01:08;99633.97;;;15.88;100.00
12963;BME280;6546;49.882;8.666;2022-10-16T03:03:35;99642.69;;;15.89;100.00
12963;BME280;6546;49.882;8.666;2022-10-16T03:06:04;99653.13;;;15.87;100.00
12963;BME280;6546;49.882;8.666;2022-10-16T03:08:31;99647.84;;;15.90;100.00
12963;BME280;6546;49.882;8.666;2022-10-16T03:10:58;99649.44;;;15.96;100.00
12963;BME280;6546;49.882;8.666;2022-10-16T03:13:25;99636.44;;;15.94;100.00
12963;BME280;6546;49.882;8.666;2022-10-16T03:15:51;99657.38;;;15.93;100.00
12963;BME280;6546;49.882;8.666;2022-10-16T03:18:18;99647.84;;;15.90;100.00
12963;BME280;6546;49.882;8.666;2022-10-16T03:20:45;99647.81;;;15.92;100.00
12963;BME280;6546;49.882;8.666;2022-10-16T03:23:18;99641.63;;;15.96;100.00
12963;BME280;6546;49.882;8.666;2022-10-16T03:25:45;99645.91;;;15.99;100.00
12963;BME280;6546;49.882;8.666;2022-10-16T03:28:12;99649.34;;;16.01;100.00
12963;BME280;6546;49.882;8.666;2022-10-16T03:30:39;99648.56;;;15.97;100.00
12963;BME280;6546;49.882;8.666;2022-10-16T03:33:06;99647.56;;;16.03;100.00
12963;BME280;6546;49.882;8.666;2022-10-16T03:35:33;99654.66;;;15.98;100.00
12963;BME280;6546;49.882;8.666;2022-10-16T03:38:00;99658.13;;;15.96;100.00
12963;BME280;6546;49.882;8.666;2022-10-16T03:40:28;99659.00;;;15.97;100.00
12963;BME280;6546;49.882;8.666;2022-10-16T03:42:57;99666.78;;;15.99;100.00
12963;BME280;6546;49.882;8.666;2022-10-16T03:45:24;99665.88;;;16.00;100.00
12963;BME280;6546;49.882;8.666;2022-10-16T03:47:51;99664.22;;;15.97;100.00
12963;BME280;6546;49.882;8.666;2022-10-16T03:50:19;99672.06;;;15.97;100.00
12963;BME280;6546;49.882;8.666;2022-10-16T03:52:46;99674.63;;;15.99;100.00
12963;BME280;6546;49.882;8.666;2022-10-16T03:55:13;99673.66;;;16.03;100.00
12963;BME280;6546;49.882;8.666;2022-10-16T03:57:42;99678.94;;;16.00;100.00
12963;BME280;6546;49.882;8.666;2022-10-16T04:00:10;99675.53;;;15.98;100.00
12963;BME280;6546;49.882;8.666;2022-10-16T04:02:41;99668.56;;;15.96;100.00
12963;BME280;6546;49.882;8.666;2022-10-16T04:05:08;99689.25;;;16.06;100.00
12963;BME280;6546;49.882;8.666;2022-10-16T04:07:35;99682.22;;;16.08;100.00
12963;BME280;6546;49.882;8.666;2022-10-16T04:10:03;99672.66;;;16.08;100.00
12963;BME280;6546;49.882;8.666;2022-10-16T04:12:31;99650.97;;;16.06;100.00
12963;BME280;6546;49.882;8.666;2022-10-16T04:14:59;99660.53;;;16.06;100.00
12963;BME280;6546;49.882;8.666;2022-10-16T04:17:26;99665.00;;;16.01;100.00
12963;BME280;6546;49.882;8.666;2022-10-16T04:19:53;99671.16;;;15.98;100.00
12963;BME280;6546;49.882;8.666;2022-10-16T04:22:20;99675.53;;;15.98;100.00
12963;BME280;6546;49.882;8.666;2022-10-16T04:24:46;99676.38;;;15.96;100.00
12963;BME280;6546;49.882;8.666;2022-10-16T04:27:14;99679.84;;;15.99;100.00
12963;BME280;6546;49.882;8.666;2022-10-16T04:29:42;99686.88;;;15.95;100.00
12963;BME280;6546;49.882;8.666;2022-10-16T04:32:11;99685.88;;;16.01;100.00
12963;BME280;6546;49.882;8.666;2022-10-16T04:34:39;99694.66;;;15.96;100.00
12963;BME280;6546;49.882;8.666;2022-10-16T04:37:07;99679.97;;;15.92;100.00
12963;BME280;6546;49.882;8.666;2022-10-16T04:39:33;99676.50;;;15.92;100.00
12963;BME280;6546;49.882;8.666;2022-10-16T04:42:00;99677.44;;;15.89;100.00
12963;BME280;6546;49.882;8.666;2022-10-16T04:44:28;99684.44;;;15.87;100.00
12963;BME280;6546;49.882;8.666;2022-10-16T04:46:54;99695.72;;;15.88;100.00
12963;BME280;6546;49.882;8.666;2022-10-16T04:49:23;99687.03;;;15.89;100.00
12963;BME280;6546;49.882;8.666;2022-10-16T04:51:50;99680.06;;;15.88;100.00
12963;BME280;6546;49.882;8.666;2022-10-16T04:54:20;99689.66;;;15.87;100.00
12963;BME280;6546;49.882;8.666;2022-10-16T04:56:50;99681.03;;;15.85;100.00
12963;BME280;6546;49.882;8.666;2022-10-16T04:59:18;99685.41;;;15.83;100.00
12963;BME280;6546;49.882;8.666;2022-10-16T05:01:45;99695.88;;;15.82;100.00
12963;BME280;6546;49.882;8.666;2022-10-16T05:04:13;99707.16;;;15.82;100.00
12963;BME280;6546;49.882;8.666;2022-10-16T05:06:42;99695.03;;;15.81;100.00
12963;BME280;6546;49.882;8.666;2022-10-16T05:09:10;99701.94;;;15.82;100.00
12963;BME280;6546;49.882;8.666;2022-10-16T05:11:37;99693.31;;;15.80;100.00
12963;BME280;6546;49.882;8.666;2022-10-16T05:14:03;99695.91;;;15.80;100.00
12963;BME280;6546;49.882;8.666;2022-10-16T05:16:30;99686.34;;;15.79;100.00
12963;BME280;6546;49.882;8.666;2022-10-16T05:18:57;99694.16;;;15.81;100.00
12963;BME280;6546;49.882;8.666;2022-10-16T05:21:24;99701.13;;;15.80;100.00
12963;BME280;6546;49.882;8.666;2022-10-16T05:23:53;99708.13;;;15.78;100.00
12963;BME280;6546;49.882;8.666;2022-10-16T05:26:19;99710.72;;;15.78;100.00
12963;BME280;6546;49.882;8.666;2022-10-16T05:28:46;99709.03;;;15.77;100.00
12963;BME280;6546;49.882;8.666;2022-10-16T05:31:13;99709.91;;;15.76;100.00
12963;BME280;6546;49.882;8.666;2022-10-16T05:33:40;99709.91;;;15.76;100.00
12963;BME280;6546;49.882;8.666;2022-10-16T05:36:09;99714.28;;;15.74;100.00
12963;BME280;6546;49.882;8.666;2022-10-16T05:38:36;99712.59;;;15.73;100.00
12963;BME280;6546;49.882;8.666;2022-10-16T05:41:05;99709.13;;;15.71;100.00
12963;BME280;6546;49.882;8.666;2022-10-16T05:43:32;99711.84;;;15.68;100.00
12963;BME280;6546;49.882;8.666;2022-10-16T05:46:02;99718.81;;;15.66;100.00
12963;BME280;6546;49.882;8.666;2022-10-16T05:48:30;99724.94;;;15.65;100.00
12963;BME280;6546;49.882;8.666;2022-10-16T05:50:58;99724.06;;;15.64;100.00
12963;BME280;6546;49.882;8.666;2022-10-16T05:53:27;99716.22;;;15.63;100.00
12963;BME280;6546;49.882;8.666;2022-10-16T05:55:54;99731.88;;;15.63;100.00
12963;BME280;6546;49.882;8.666;2022-10-16T05:58:23;99734.47;;;15.63;100.00
12963;BME280;6546;49.882;8.666;2022-10-16T06:00:54;99744.06;;;15.62;100.00
12963;BME280;6546;49.882;8.666;2022-10-16T06:03:22;99745.81;;;15.62;100.00
12963;BME280;6546;49.882;8.666;2022-10-16T06:05:49;99754.47;;;15.64;100.00
12963;BME280;6546;49.882;8.666;2022-10-16T06:08:17;99766.66;;;15.65;100.00
12963;BME280;6546;49.882;8.666;2022-10-16T06:10:45;99764.91;;;15.64;100.00
12963;BME280;6546;49.882;8.666;2022-10-16T06:13:12;99759.63;;;15.67;100.00
12963;BME280;6546;49.882;8.666;2022-10-16T06:15:43;99761.38;;;15.68;100.00
12963;BME280;6546;49.882;8.666;2022-10-16T06:18:10;99760.44;;;15.70;100.00
12963;BME280;6546;49.882;8.666;2022-10-16T06:20:37;99763.09;;;15.69;100.00
12963;BME280;6546;49.882;8.666;2022-10-16T06:23:04;99770.03;;;15.70;100.00
12963;BME280;6546;49.882;8.666;2022-10-16T06:25:31;99768.25;;;15.72;100.00
12963;BME280;6546;49.882;8.666;2022-10-16T06:27:59;99768.25;;;15.72;100.00
12963;BME280;6546;49.882;8.666;2022-10-16T06:30:26;99768.25;;;15.72;100.00
12963;BME280;6546;49.882;8.666;2022-10-16T06:32:55;99774.28;;;15.74;100.00
12963;BME280;6546;49.882;8.666;2022-10-16T06:35:23;99768.16;;;15.75;100.00
12963;BME280;6546;49.882;8.666;2022-10-16T06:37:50;99780.34;;;15.76;100.00
12963;BME280;6546;49.882;8.666;2022-10-16T06:40:19;99771.63;;;15.77;100.00
12963;BME280;6546;49.882;8.666;2022-10-16T06:42:45;99774.22;;;15.77;100.00
12963;BME280;6546;49.882;8.666;2022-10-16T06:45:12;99772.47;;;15.78;100.00
12963;BME280;6546;49.882;8.666;2022-10-16T06:47:39;99788.94;;;15.81;100.00
12963;BME280;6546;49.882;8.666;2022-10-16T06:50:08;99779.34;;;15.82;100.00
12963;BME280;6546;49.882;8.666;2022-10-16T06:52:35;99790.63;;;15.82;100.00
12963;BME280;6546;49.882;8.666;2022-10-16T06:55:03;99799.28;;;15.84;100.00
12963;BME280;6546;49.882;8.666;2022-10-16T06:57:29;99803.63;;;15.85;100.00
12963;BME280;6546;49.882;8.666;2022-10-16T06:59:56;99800.13;;;15.86;100.00
12963;BME280;6546;49.882;8.666;2022-10-16T07:02:23;99807.03;;;15.89;100.00
12963;BME280;6546;49.882;8.666;2022-10-16T07:04:53;99800.81;;;15.94;100.00
12963;BME280;6546;49.882;8.666;2022-10-16T07:07:26;99802.47;;;15.99;100.00
12963;BME280;6546;49.882;8.666;2022-10-16T07:09:54;99810.31;;;15.99;100.00
12963;BME280;6546;49.882;8.666;2022-10-16T07:12:21;99800.53;;;16.08;100.00
12963;BME280;6546;49.882;8.666;2022-10-16T07:14:48;99806.59;;;16.09;100.00
12963;BME280;6546;49.882;8.666;2022-10-16T07:17:20;99817.78;;;16.15;100.00
12963;BME280;6546;49.882;8.666;2022-10-16T07:19:47;99821.25;;;16.16;100.00
12963;BME280;6546;49.882;8.666;2022-10-16T07:22:14;99829.88;;;16.18;100.00
12963;BME280;6546;49.882;8.666;2022-10-16T07:24:42;99836.75;;;16.22;100.00
12963;BME280;6546;49.882;8.666;2022-10-16T07:27:10;99835.88;;;16.23;100.00
12963;BME280;6546;49.882;8.666;2022-10-16T07:29:38;99846.22;;;16.28;100.00
12963;BME280;6546;49.882;8.666;2022-10-16T07:32:05;99840.06;;;16.30;100.00
12963;BME280;6546;49.882;8.666;2022-10-16T07:34:32;99847.78;;;16.35;100.00
12963;BME280;6546;49.882;8.666;2022-10-16T07:36:59;99854.66;;;16.40;100.00
12963;BME280;6546;49.882;8.666;2022-10-16T07:39:26;99848.53;;;16.41;100.00
12963;BME280;6546;49.882;8.666;2022-10-16T07:41:54;99850.25;;;16.42;100.00
12963;BME280;6546;49.882;8.666;2022-10-16T07:44:22;99865.91;;;16.44;100.00
12963;BME280;6546;49.882;8.666;2022-10-16T07:46:49;99865.00;;;16.45;100.00
12963;BME280;6546;49.882;8.666;2022-10-16T07:49:15;99851.97;;;16.43;100.00
12963;BME280;6546;49.882;8.666;2022-10-16T07:51:42;99851.91;;;16.46;100.00
12963;BME280;6546;49.882;8.666;2022-10-16T07:54:09;99865.78;;;16.49;100.00
12963;BME280;6546;49.882;8.666;2022-10-16T07:56:36;99861.38;;;16.51;100.00
12963;BME280;6546;49.882;8.666;2022-10-16T07:59:04;99871.78;;;16.54;100.00
12963;BME280;6546;49.882;8.666;2022-10-16T08:01:31;99859.59;;;16.53;100.00
12963;BME280;6546;49.882;8.666;2022-10-16T08:03:58;99863.94;;;16.54;100.00
12963;BME280;6546;49.882;8.666;2022-10-16T08:06:25;99870.88;;;16.55;100.00
12963;BME280;6546;49.882;8.666;2022-10-16T08:08:51;99876.84;;;16.60;100.00
12963;BME280;6546;49.882;8.666;2022-10-16T08:11:19;99884.69;;;16.60;100.00
12963;BME280;6546;49.882;8.666;2022-10-16T08:13:45;99881.09;;;16.64;100.00
12963;BME280;6546;49.882;8.666;2022-10-16T08:16:14;99887.97;;;16.68;100.00
12963;BME280;6546;49.882;8.666;2022-10-16T08:18:42;99895.84;;;16.66;100.00
12963;BME280;6546;49.882;8.666;2022-10-16T08:21:14;99898.44;;;16.68;100.00
12963;BME280;6546;49.882;8.666;2022-10-16T08:23:41;99907.09;;;16.70;100.00
12963;BME280;6546;49.882;8.666;2022-10-16T08:26:09;99907.91;;;16.72;100.00
12963;BME280;6546;49.882;8.666;2022-10-16T08:28:37;99912.31;;;16.70;100.00
12963;BME280;6546;49.882;8.666;2022-10-16T08:31:07;99921.06;;;16.69;100.00
12963;BME280;6546;49.882;8.666;2022-10-16T08:33:37;99925.38;;;16.70;100.00
12963;BME280;6546;49.882;8.666;2022-10-16T08:36:10;99931.56;;;16.66;100.00
12963;BME280;6546;49.882;8.666;2022-10-16T08:38:39;99947.19;;;16.69;100.00
12963;BME280;6546;49.882;8.666;2022-10-16T08:44:19;99955.31;;;16.55;100.00
12963;BME280;6546;49.882;8.666;2022-10-16T08:46:58;99959.66;;;16.55;100.00
12963;BME280;6546;49.882;8.666;2022-10-16T08:49:31;99953.47;;;16.60;100.00
12963;BME280;6546;49.882;8.666;2022-10-16T08:51:58;99947.44;;;16.57;100.00
12963;BME280;6546;49.882;8.666;2022-10-16T08:54:29;99951.69;;;16.62;100.00
12963;BME280;6546;49.882;8.666;2022-10-16T08:57:07;99948.91;;;16.68;100.00
12963;BME280;6546;49.882;8.666;2022-10-16T08:59:37;99956.03;;;16.62;100.00
12963;BME280;6546;49.882;8.666;2022-10-16T09:02:22;99955.19;;;16.60;100.00
12963;BME280;6546;49.882;8.666;2022-10-16T09:05:23;99961.31;;;16.59;100.00
12963;BME280;6546;49.882;8.666;2022-10-16T09:08:00;99961.28;;;16.62;100.00
12963;BME280;6546;49.882;8.666;2022-10-16T09:10:39;99972.56;;;16.62;100.00
12963;BME280;6546;49.882;8.666;2022-10-16T09:13:17;99976.94;;;16.62;100.00
12963;BME280;6546;49.882;8.666;2022-10-16T09:15:49;99976.38;;;16.48;100.00
12963;BME280;6546;49.882;8.666;2022-10-16T09:18:24;99989.34;;;16.51;100.00
12963;BME280;6546;49.882;8.666;2022-10-16T09:21:00;99991.06;;;16.52;100.00
12963;BME280;6546;49.882;8.666;2022-10-16T09:23:34;99990.09;;;16.57;100.00
12963;BME280;6546;49.882;8.666;2022-10-16T09:26:01;99997.00;;;16.60;100.00
12963;BME280;6546;49.882;8.666;2022-10-16T09:28:29;100001.22;;;16.67;100.00
12963;BME280;6546;49.882;8.666;2022-10-16T09:30:56;100022.75;;;16.80;100.00
12963;BME280;6546;49.882;8.666;2022-10-16T09:33:25;99995.63;;;16.85;100.00
12963;BME280;6546;49.882;8.666;2022-10-16T09:35:57;99997.38;;;16.85;100.00
12963;BME280;6546;49.882;8.666;2022-10-16T09:38:27;100001.59;;;16.92;100.00
12963;BME280;6546;49.882;8.666;2022-10-16T09:40:56;100004.16;;;16.93;100.00
12963;BME280;6546;49.882;8.666;2022-10-16T09:43:25;100014.44;;;17.03;100.00
12963;BME280;6546;49.882;8.666;2022-10-16T09:46:00;100006.38;;;17.12;100.00
12963;BME280;6546;49.882;8.666;2022-10-16T09:48:31;100016.69;;;17.18;100.00
12963;BME280;6546;49.882;8.666;2022-10-16T09:51:04;100015.59;;;17.28;100.00
12963;BME280;6546;49.882;8.666;2022-10-16T09:53:39;100015.38;;;17.37;100.00
12963;BME280;6546;49.882;8.666;2022-10-16T09:56:07;100017.88;;;17.42;100.00
12963;BME280;6546;49.882;8.666;2022-10-16T09:58:35;100016.81;;;17.51;100.00
12963;BME280;6546;49.882;8.666;2022-10-16T10:01:03;100009.88;;;17.50;100.00
12963;BME280;6546;49.882;8.666;2022-10-16T10:03:35;100018.41;;;17.56;100.00
12963;BME280;6546;49.882;8.666;2022-10-16T10:06:13;100017.41;;;17.62;100.00
12963;BME280;6546;49.882;8.666;2022-10-16T10:08:59;100012.84;;;17.70;100.00
12963;BME280;6546;49.882;8.666;2022-10-16T10:11:48;100010.00;;;17.81;100.00
12963;BME280;6546;49.882;8.666;2022-10-16T10:14:19;100018.50;;;17.89;100.00
12963;BME280;6546;49.882;8.666;2022-10-16T10:16:47;100029.59;;;17.99;100.00
12963;BME280;6546;49.882;8.666;2022-10-16T10:19:16;100025.81;;;18.10;100.00
12963;BME280;6546;49.882;8.666;2022-10-16T10:21:45;100037.78;;;18.19;100.00
12963;BME280;6546;49.882;8.666;2022-10-16T10:24:13;100029.09;;;18.18;100.00
12963;BME280;6546;49.882;8.666;2022-10-16T10:26:48;100020.28;;;18.21;100.00
12963;BME280;6546;49.882;8.666;2022-10-16T10:29:24;100020.69;;;18.06;100.00
12963;BME280;6546;49.882;8.666;2022-10-16T10:32:01;100015.69;;;17.97;100.00
12963;BME280;6546;49.882;8.666;2022-10-16T10:34:41;100020.22;;;17.90;100.00
12963;BME280;6546;49.882;8.666;2022-10-16T10:37:28;100023.94;;;17.81;100.00
12963;BME280;6546;49.882;8.666;2022-10-16T10:40:05;100027.44;;;17.80;100.00
12963;BME280;6546;49.882;8.666;2022-10-16T10:42:40;100026.72;;;17.75;100.00
12963;BME280;6546;49.882;8.666;2022-10-16T10:45:23;100017.19;;;17.69;100.00
12963;BME280;6546;49.882;8.666;2022-10-16T10:48:02;100025.16;;;17.66;100.00
12963;BME280;6546;49.882;8.666;2022-10-16T10:50:38;100022.56;;;17.65;100.00
12963;BME280;6546;49.882;8.666;2022-10-16T10:53:29;100016.47;;;17.64;100.00
12963;BME280;6546;49.882;8.666;2022-10-16T10:56:03;100014.69;;;17.66;100.00
12963;BME280;6546;49.882;8.666;2022-10-16T10:58:49;100021.69;;;17.66;100.00
12963;BME280;6546;49.882;8.666;2022-10-16T11:01:26;100013.66;;;17.72;100.00
12963;BME280;6546;49.882;8.666;2022-10-16T11:04:19;100011.97;;;17.69;100.00
12963;BME280;6546;49.882;8.666;2022-10-16T11:06:52;100005.94;;;17.67;100.00
12963;BME280;6546;49.882;8.666;2022-10-16T11:09:25;100005.88;;;17.69;100.00
12963;BME280;6546;49.882;8.666;2022-10-16T11:11:56;100010.13;;;17.73;100.00
12963;BME280;6546;49.882;8.666;2022-10-16T11:14:29;100012.03;;;17.68;100.00
12963;BME280;6546;49.882;8.666;2022-10-16T11:17:00;100017.38;;;17.63;100.00
12963;BME280;6546;49.882;8.666;2022-10-16T11:19:36;100013.06;;;17.61;100.00
12963;BME280;6546;49.882;8.666;2022-10-16T11:22:11;100016.25;;;17.75;100.00
12963;BME280;6546;49.882;8.666;2022-10-16T11:24:48;100014.53;;;17.74;100.00
12963;BME280;6546;49.882;8.666;2022-10-16T11:27:21;100020.56;;;17.76;100.00
12963;BME280;6546;49.882;8.666;2022-10-16T11:29:55;100019.66;;;17.77;100.00
12963;BME280;6546;49.882;8.666;2022-10-16T11:32:27;100018.75;;;17.80;100.00
12963;BME280;6546;49.882;8.666;2022-10-16T11:35:00;100028.25;;;17.82;100.00
12963;BME280;6546;49.882;8.666;2022-10-16T11:37:32;100022.56;;;18.01;100.00
12963;BME280;6546;49.882;8.666;2022-10-16T11:40:10;100025.69;;;18.15;100.00
12963;BME280;6546;49.882;8.666;2022-10-16T11:42:46;100021.75;;;18.31;100.00
12963;BME280;6546;49.882;8.666;2022-10-16T11:45:24;100013.44;;;18.48;100.00
12963;BME280;6546;49.882;8.666;2022-10-16T11:48:00;100007.25;;;18.51;100.00
12963;BME280;6546;49.882;8.666;2022-10-16T11:50:31;99995.28;;;18.40;100.00
12963;BME280;6546;49.882;8.666;2022-10-16T11:53:04;99994.53;;;18.37;100.00
12963;BME280;6546;49.882;8.666;2022-10-16T11:55:39;99998.06;;;18.36;100.00
12963;BME280;6546;49.882;8.666;2022-10-16T11:58:12;99993.78;;;18.32;100.00
12963;BME280;6546;49.882;8.666;2022-10-16T12:00:46;99980.81;;;18.29;100.00
12963;BME280;6546;49.882;8.666;2022-10-16T12:03:20;99981.56;;;18.32;100.00
12963;BME280;6546;49.882;8.666;2022-10-16T12:06:19;99977.94;;;18.36;100.00
12963;BME280;6546;49.882;8.666;2022-10-16T12:08:49;99975.16;;;18.42;100.00
12963;BME280;6546;49.882;8.666;2022-10-16T12:11:36;99976.84;;;18.45;100.00
12963;BME280;6546;49.882;8.666;2022-10-16T12:14:07;99987.31;;;18.45;100.00
12963;BME280;6546;49.882;8.666;2022-10-16T12:16:37;99997.03;;;18.41;100.00
12963;BME280;6546;49.882;8.666;2022-10-16T12:19:12;99998.75;;;18.42;100.00
12963;BME280;6546;49.882;8.666;2022-10-16T12:21:39;99988.28;;;18.42;100.00
12963;BME280;6546;49.882;8.666;2022-10-16T12:24:21;99985.53;;;18.45;100.00
12963;BME280;6546;49.882;8.666;2022-10-16T12:26:50;99985.38;;;18.52;100.00
12963;BME280;6546;49.882;8.666;2022-10-16T12:29:25;99986.09;;;18.57;100.00
12963;BME280;6546;49.882;8.666;2022-10-16T12:31:54;99984.00;;;18.71;100.00
12963;BME280;6546;49.882;8.666;2022-10-16T12:34:26;99983.81;;;18.77;100.00
12963;BME280;6546;49.882;8.666;2022-10-16T12:36:55;99985.63;;;18.75;100.00
12963;BME280;6546;49.882;8.666;2022-10-16T12:39:24;99994.28;;;18.77;100.00
12963;BME280;6546;49.882;8.666;2022-10-16T12:42:04;100003.13;;;18.73;100.00
12963;BME280;6546;49.882;8.666;2022-10-16T12:44:33;100002.28;;;18.73;100.00
12963;BME280;6546;49.882;8.666;2022-10-16T12:47:01;100008.44;;;18.72;100.00
12963;BME280;6546;49.882;8.666;2022-10-16T12:49:35;100005.91;;;18.67;100.00
12963;BME280;6546;49.882;8.666;2022-10-16T12:52:03;99996.50;;;18.60;100.00
12963;BME280;6546;49.882;8.666;2022-10-16T12:54:34;100001.81;;;18.57;100.00
12963;BME280;6546;49.882;8.666;2022-10-16T12:57:13;100010.66;;;18.54;100.00
12963;BME280;6546;49.882;8.666;2022-10-16T12:59:52;100005.34;;;18.56;100.00
12963;BME280;6546;49.882;8.666;2022-10-16T13:05:34;99999.00;;;18.64;100.00
12963;BME280;6546;49.882;8.666;2022-10-16T13:08:21;100003.13;;;18.73;100.00
12963;BME280;6546;49.882;8.666;2022-10-16T13:10:59;100004.78;;;18.77;100.00
12963;BME280;6546;49.882;8.666;2022-10-16T13:13:45;100003.91;;;18.77;100.00
12963;BME280;6546;49.882;8.666;2022-10-16T13:16:23;100012.41;;;18.85;100.00
12963;BME280;6546;49.882;8.666;2022-10-16T13:18:59;100010.69;;;18.84;100.00
12963;BME280;6546;49.882;8.666;2022-10-16T13:21:36;100009.81;;;18.83;100.00